LAKE NATOMA (NIMBUS DAM) (NAT)

Elevation: 132' · AMERICAN R basin · Operator: US Bureau of Reclamation

Provisional data, subject to change.
Query executed Friday at 16:24:55   clock

Select a sensor type for a plot of data.
Note: Reservoir Flows are daily averages.

Earlier

Date RES ELE    STORAGE    RES CHG    OUTFLOW    INFLOW    SPILL    DIS PWR   
 FEET   AF   AF   CFS   CFS   CFS   CFS  
01/13/2016 123.38 7970 -89 493 448 0 418
01/14/2016 123.15 7862 -108 508 454 0 424
01/15/2016 122.29 7472 -390 514 317 0 424
01/16/2016 121.47 7118 -354 513 335 0 423
01/17/2016 121.34 7064 -54 516 492 0 426
01/18/2016 122.69 7652 588 514 811 0 424
01/19/2016 122.76 7683 31 513 529 0 423
01/20/2016 122.55 7589 -94 513 466 0 423
01/21/2016 123.31 7937 348 515 691 0 425
01/22/2016 122.45 7544 -393 506 309 0 423
01/23/2016 121.29 7043 -501 785 532 0 710
01/24/2016 121.56 7156 113 803 860 0 728
01/25/2016 121.65 7194 38 796 816 0 721
01/26/2016 122.00 7341 147 788 862 0 713
01/27/2016 123.20 7885 544 794 1069 0 719
01/28/2016 122.77 7688 -197 807 708 0 732
01/29/2016 122.58 7602 -86 806 763 0 731
01/30/2016 122.10 7386 -216 811 702 0 729
01/31/2016 121.06 6946 -440 831 610 0 731
02/01/2016 121.81 7261 315 835 996 301 434
02/02/2016 122.53 7580 319 843 1004 429 314
02/03/2016 122.52 7575 -5 859 856 452 307
02/04/2016 123.23 7899 324 830 994 443 287
02/05/2016 122.40 7521 -378 1641 1450 814 727
02/06/2016 121.59 7169 -352 1687 1511 0 1587
02/07/2016 122.07 7373 204 1718 1822 0 1618
02/08/2016 124.01 8266 893 1737 2188 0 1637
02/09/2016 122.64 7629 -637 1895 1575 65 1730
02/10/2016 123.27 7918 289 2969 3116 653 2216
02/11/2016 123.66 8101 183 2998 3091 653 2260
02/12/2016 -- -- -- -- -- -- --

Later | Latest

Warning! This data is preliminary and subject to revision.

Show NAT Map | Plot NAT Data | 1 Month NAT Data | Real-Time NAT Data | NAT Info